Etusivu
METAR-TAF:

METAR-TAF

Lentoasemat :

Albenga, Italia

Leveyspiiri: 44-03N, Pituuspiiri: 008-07E, korkeus merenpinnasta: 45 m

Tämänhetkinen sää

Tämä raportti tehtiin 46 minuuttia sitten, kello 15.50 UTC
Tuuli 8 kn idästä/kaakosta
Lämpötila 21°C
Kosteus 78%
Ilmanpaine 1018 hPa
Näkyvyys 10 km tai enemmän
Hajanaisia pilviä 4000 ft:n korkeudessa

METAR: LIMG 141550Z 11008KT 9999 SCT040 21/17 Q1018

Aika: 18:36 (16:36 UTC)


TAF: puuttuu

Säähavainnot ja -ennusteet yli 4000 lentoasemalta (METAR- ja TAF-raportit).

Käytössä olevat sääasemat on merkitty karttaan keltaisilla ja punaisilla pisteillä.

Aseta hiiri pisteen päälle nähdäksesi sääaseman nimen.

Klikkaa sitten nähdäksesi säähavainnot ja -ennusteet.

Kartan vaihtaminen: klikkaa mustalla rastilla varustettuja vihreitä pisteitä, niin voit zoomata sisään; viivalla varustettua vihreää pistettä, niin voit zoomata ulos tai vihreitä nuolia, niin pääset viereisille kartoille.


METAR-TAF: